sensor_id;sensor_type;location;lat;lon;timestamp;P1;durP1;ratioP1;P2;durP2;ratioP2
41512;SDS011;27244;59.940;30.280;2022-12-18T00:01:01;8.40;;;6.85;;
41512;SDS011;27244;59.940;30.280;2022-12-18T00:03:33;8.73;;;7.07;;
41512;SDS011;27244;59.940;30.280;2022-12-18T00:05:59;8.98;;;7.57;;
41512;SDS011;27244;59.940;30.280;2022-12-18T00:08:27;10.02;;;7.25;;
41512;SDS011;27244;59.940;30.280;2022-12-18T00:10:54;7.90;;;6.82;;
41512;SDS011;27244;59.940;30.280;2022-12-18T00:13:21;7.03;;;6.32;;
41512;SDS011;27244;59.940;30.280;2022-12-18T00:15:48;8.95;;;6.82;;
41512;SDS011;27244;59.940;30.280;2022-12-18T00:18:15;7.97;;;6.65;;
41512;SDS011;27244;59.940;30.280;2022-12-18T00:20:43;7.28;;;6.05;;
41512;SDS011;27244;59.940;30.280;2022-12-18T00:23:10;8.00;;;6.82;;
41512;SDS011;27244;59.940;30.280;2022-12-18T00:25:37;7.22;;;6.22;;
41512;SDS011;27244;59.940;30.280;2022-12-18T00:28:04;6.97;;;5.43;;
41512;SDS011;27244;59.940;30.280;2022-12-18T00:30:31;6.95;;;6.03;;
41512;SDS011;27244;59.940;30.280;2022-12-18T00:32:58;7.00;;;6.13;;
41512;SDS011;27244;59.940;30.280;2022-12-18T00:35:25;6.88;;;5.88;;
41512;SDS011;27244;59.940;30.280;2022-12-18T00:37:54;6.72;;;5.93;;
41512;SDS011;27244;59.940;30.280;2022-12-18T00:40:22;7.50;;;5.57;;
41512;SDS011;27244;59.940;30.280;2022-12-18T00:42:49;7.00;;;6.07;;
41512;SDS011;27244;59.940;30.280;2022-12-18T00:45:21;7.30;;;6.07;;
41512;SDS011;27244;59.940;30.280;2022-12-18T00:47:49;7.35;;;5.65;;
41512;SDS011;27244;59.940;30.280;2022-12-18T00:50:16;8.63;;;5.72;;
41512;SDS011;27244;59.940;30.280;2022-12-18T00:52:45;6.13;;;5.45;;
41512;SDS011;27244;59.940;30.280;2022-12-18T00:55:13;5.95;;;5.35;;
41512;SDS011;27244;59.940;30.280;2022-12-18T00:57:41;8.38;;;6.07;;
41512;SDS011;27244;59.940;30.280;2022-12-18T01:00:09;6.78;;;5.85;;
41512;SDS011;27244;59.940;30.280;2022-12-18T01:02:39;6.80;;;5.73;;
41512;SDS011;27244;59.940;30.280;2022-12-18T01:05:07;7.53;;;5.97;;
41512;SDS011;27244;59.940;30.280;2022-12-18T01:07:35;6.00;;;5.30;;
41512;SDS011;27244;59.940;30.280;2022-12-18T01:10:02;6.32;;;4.95;;
41512;SDS011;27244;59.940;30.280;2022-12-18T01:12:32;6.80;;;5.50;;
41512;SDS011;27244;59.940;30.280;2022-12-18T01:14:59;5.88;;;5.28;;
41512;SDS011;27244;59.940;30.280;2022-12-18T01:17:26;7.03;;;5.40;;
41512;SDS011;27244;59.940;30.280;2022-12-18T01:19:53;6.75;;;5.60;;
41512;SDS011;27244;59.940;30.280;2022-12-18T01:22:20;6.55;;;5.20;;
41512;SDS011;27244;59.940;30.280;2022-12-18T01:24:47;7.28;;;5.50;;
41512;SDS011;27244;59.940;30.280;2022-12-18T01:27:14;8.23;;;5.90;;
41512;SDS011;27244;59.940;30.280;2022-12-18T01:29:42;6.35;;;5.72;;
41512;SDS011;27244;59.940;30.280;2022-12-18T01:32:09;6.70;;;5.70;;
41512;SDS011;27244;59.940;30.280;2022-12-18T01:34:37;5.78;;;5.05;;
41512;SDS011;27244;59.940;30.280;2022-12-18T01:37:04;6.28;;;5.45;;
41512;SDS011;27244;59.940;30.280;2022-12-18T01:39:31;6.72;;;5.28;;
41512;SDS011;27244;59.940;30.280;2022-12-18T01:41:59;6.80;;;5.40;;
41512;SDS011;27244;59.940;30.280;2022-12-18T01:47:28;7.07;;;5.70;;
41512;SDS011;27244;59.940;30.280;2022-12-18T01:50:00;6.78;;;5.50;;
41512;SDS011;27244;59.940;30.280;2022-12-18T01:52:30;6.57;;;5.80;;
41512;SDS011;27244;59.940;30.280;2022-12-18T01:54:59;6.18;;;5.57;;
41512;SDS011;27244;59.940;30.280;2022-12-18T01:57:26;6.82;;;5.35;;
41512;SDS011;27244;59.940;30.280;2022-12-18T01:59:56;8.07;;;5.55;;
41512;SDS011;27244;59.940;30.280;2022-12-18T02:02:38;6.10;;;5.18;;
41512;SDS011;27244;59.940;30.280;2022-12-18T02:05:07;6.43;;;5.47;;
41512;SDS011;27244;59.940;30.280;2022-12-18T02:07:38;7.05;;;5.63;;
41512;SDS011;27244;59.940;30.280;2022-12-18T02:10:14;6.47;;;5.53;;
41512;SDS011;27244;59.940;30.280;2022-12-18T02:12:48;5.97;;;5.38;;
41512;SDS011;27244;59.940;30.280;2022-12-18T02:15:24;6.22;;;5.45;;
41512;SDS011;27244;59.940;30.280;2022-12-18T02:17:58;6.60;;;5.18;;
41512;SDS011;27244;59.940;30.280;2022-12-18T02:20:33;5.93;;;5.32;;
41512;SDS011;27244;59.940;30.280;2022-12-18T02:23:09;6.55;;;5.50;;
41512;SDS011;27244;59.940;30.280;2022-12-18T02:26:06;6.97;;;5.82;;
41512;SDS011;27244;59.940;30.280;2022-12-18T02:28:42;7.65;;;5.80;;
41512;SDS011;27244;59.940;30.280;2022-12-18T02:31:14;7.18;;;5.30;;
41512;SDS011;27244;59.940;30.280;2022-12-18T02:33:55;7.40;;;5.88;;
41512;SDS011;27244;59.940;30.280;2022-12-18T02:36:26;5.80;;;5.20;;
41512;SDS011;27244;59.940;30.280;2022-12-18T02:38:56;6.70;;;5.63;;
41512;SDS011;27244;59.940;30.280;2022-12-18T02:41:26;7.40;;;5.85;;
41512;SDS011;27244;59.940;30.280;2022-12-18T02:43:56;7.45;;;5.40;;
41512;SDS011;27244;59.940;30.280;2022-12-18T02:46:26;6.75;;;5.30;;
41512;SDS011;27244;59.940;30.280;2022-12-18T02:49:01;6.72;;;5.53;;
41512;SDS011;27244;59.940;30.280;2022-12-18T02:51:39;7.15;;;5.80;;
41512;SDS011;27244;59.940;30.280;2022-12-18T02:54:16;6.45;;;5.60;;
41512;SDS011;27244;59.940;30.280;2022-12-18T02:56:53;7.50;;;5.78;;
41512;SDS011;27244;59.940;30.280;2022-12-18T02:59:23;8.05;;;6.20;;
41512;SDS011;27244;59.940;30.280;2022-12-18T03:01:58;7.88;;;5.72;;
41512;SDS011;27244;59.940;30.280;2022-12-18T03:04:33;6.13;;;5.53;;
41512;SDS011;27244;59.940;30.280;2022-12-18T03:07:08;6.80;;;5.50;;
41512;SDS011;27244;59.940;30.280;2022-12-18T03:09:42;8.13;;;5.70;;
41512;SDS011;27244;59.940;30.280;2022-12-18T03:12:18;6.93;;;6.03;;
41512;SDS011;27244;59.940;30.280;2022-12-18T03:14:53;7.20;;;5.45;;
41512;SDS011;27244;59.940;30.280;2022-12-18T03:17:26;9.13;;;5.93;;
41512;SDS011;27244;59.940;30.280;2022-12-18T03:19:56;6.68;;;5.90;;
41512;SDS011;27244;59.940;30.280;2022-12-18T03:22:29;6.55;;;5.82;;
41512;SDS011;27244;59.940;30.280;2022-12-18T03:24:58;6.72;;;5.57;;
41512;SDS011;27244;59.940;30.280;2022-12-18T03:27:29;7.57;;;5.88;;
41512;SDS011;27244;59.940;30.280;2022-12-18T03:30:05;7.00;;;5.57;;
41512;SDS011;27244;59.940;30.280;2022-12-18T03:32:56;7.47;;;5.68;;
41512;SDS011;27244;59.940;30.280;2022-12-18T03:35:29;8.60;;;5.40;;
41512;SDS011;27244;59.940;30.280;2022-12-18T03:37:59;7.53;;;6.50;;
41512;SDS011;27244;59.940;30.280;2022-12-18T03:40:29;6.95;;;6.22;;
41512;SDS011;27244;59.940;30.280;2022-12-18T03:43:06;7.22;;;5.65;;
41512;SDS011;27244;59.940;30.280;2022-12-18T03:45:39;9.38;;;5.57;;
41512;SDS011;27244;59.940;30.280;2022-12-18T03:48:16;6.63;;;5.65;;
41512;SDS011;27244;59.940;30.280;2022-12-18T03:50:48;12.32;;;6.07;;
41512;SDS011;27244;59.940;30.280;2022-12-18T03:53:22;8.45;;;6.05;;
41512;SDS011;27244;59.940;30.280;2022-12-18T03:55:55;8.32;;;5.65;;
41512;SDS011;27244;59.940;30.280;2022-12-18T03:58:30;8.18;;;6.60;;
41512;SDS011;27244;59.940;30.280;2022-12-18T04:01:12;7.88;;;6.22;;
41512;SDS011;27244;59.940;30.280;2022-12-18T04:03:42;8.85;;;6.07;;
41512;SDS011;27244;59.940;30.280;2022-12-18T04:06:12;6.85;;;5.72;;
41512;SDS011;27244;59.940;30.280;2022-12-18T04:08:42;8.85;;;5.82;;
41512;SDS011;27244;59.940;30.280;2022-12-18T04:11:13;9.30;;;5.88;;
41512;SDS011;27244;59.940;30.280;2022-12-18T04:13:44;7.95;;;6.55;;
41512;SDS011;27244;59.940;30.280;2022-12-18T04:16:19;12.30;;;6.43;;
41512;SDS011;27244;59.940;30.280;2022-12-18T04:18:58;11.33;;;6.40;;
41512;SDS011;27244;59.940;30.280;2022-12-18T04:21:38;9.30;;;5.95;;
41512;SDS011;27244;59.940;30.280;2022-12-18T04:24:06;12.15;;;6.38;;
41512;SDS011;27244;59.940;30.280;2022-12-18T04:26:36;9.45;;;5.88;;
41512;SDS011;27244;59.940;30.280;2022-12-18T04:29:25;8.52;;;5.85;;
41512;SDS011;27244;59.940;30.280;2022-12-18T04:34:19;9.43;;;6.40;;
41512;SDS011;27244;59.940;30.280;2022-12-18T04:36:51;9.98;;;5.60;;
41512;SDS011;27244;59.940;30.280;2022-12-18T04:39:19;10.57;;;6.32;;
41512;SDS011;27244;59.940;30.280;2022-12-18T04:41:48;8.63;;;6.38;;
41512;SDS011;27244;59.940;30.280;2022-12-18T04:44:15;12.75;;;6.57;;
41512;SDS011;27244;59.940;30.280;2022-12-18T04:46:48;11.80;;;6.15;;
41512;SDS011;27244;59.940;30.280;2022-12-18T04:49:15;9.55;;;6.20;;
41512;SDS011;27244;59.940;30.280;2022-12-18T04:51:42;11.23;;;6.13;;
41512;SDS011;27244;59.940;30.280;2022-12-18T04:54:09;10.85;;;6.22;;
41512;SDS011;27244;59.940;30.280;2022-12-18T04:56:36;12.65;;;6.18;;
41512;SDS011;27244;59.940;30.280;2022-12-18T04:59:03;9.52;;;6.40;;
41512;SDS011;27244;59.940;30.280;2022-12-18T05:01:31;12.85;;;6.95;;
41512;SDS011;27244;59.940;30.280;2022-12-18T05:04:00;8.82;;;5.95;;
41512;SDS011;27244;59.940;30.280;2022-12-18T05:06:27;12.50;;;6.15;;
41512;SDS011;27244;59.940;30.280;2022-12-18T05:08:54;9.35;;;6.25;;
41512;SDS011;27244;59.940;30.280;2022-12-18T05:11:21;9.27;;;5.70;;
41512;SDS011;27244;59.940;30.280;2022-12-18T05:13:49;9.65;;;5.30;;
41512;SDS011;27244;59.940;30.280;2022-12-18T05:16:15;9.13;;;5.53;;
41512;SDS011;27244;59.940;30.280;2022-12-18T05:18:42;9.60;;;5.40;;
41512;SDS011;27244;59.940;30.280;2022-12-18T05:21:11;7.65;;;5.68;;
41512;SDS011;27244;59.940;30.280;2022-12-18T05:23:38;9.68;;;5.88;;
41512;SDS011;27244;59.940;30.280;2022-12-18T05:26:05;11.35;;;6.32;;
41512;SDS011;27244;59.940;30.280;2022-12-18T05:28:34;7.25;;;5.32;;
41512;SDS011;27244;59.940;30.280;2022-12-18T05:31:02;8.20;;;5.70;;
41512;SDS011;27244;59.940;30.280;2022-12-18T05:33:31;6.88;;;5.72;;
41512;SDS011;27244;59.940;30.280;2022-12-18T05:36:00;10.32;;;5.88;;
41512;SDS011;27244;59.940;30.280;2022-12-18T05:38:30;7.38;;;5.63;;
41512;SDS011;27244;59.940;30.280;2022-12-18T05:40:58;8.23;;;5.85;;
41512;SDS011;27244;59.940;30.280;2022-12-18T05:43:25;8.45;;;5.70;;
41512;SDS011;27244;59.940;30.280;2022-12-18T05:45:53;6.45;;;5.25;;
41512;SDS011;27244;59.940;30.280;2022-12-18T05:48:21;7.38;;;5.20;;
41512;SDS011;27244;59.940;30.280;2022-12-18T05:50:49;8.60;;;5.65;;
41512;SDS011;27244;59.940;30.280;2022-12-18T05:53:18;9.25;;;5.72;;
41512;SDS011;27244;59.940;30.280;2022-12-18T05:55:47;7.53;;;5.28;;
41512;SDS011;27244;59.940;30.280;2022-12-18T05:58:15;9.30;;;5.70;;
41512;SDS011;27244;59.940;30.280;2022-12-18T06:00:43;7.60;;;5.50;;
41512;SDS011;27244;59.940;30.280;2022-12-18T06:03:12;7.60;;;5.53;;
41512;SDS011;27244;59.940;30.280;2022-12-18T06:05:40;6.90;;;5.18;;
41512;SDS011;27244;59.940;30.280;2022-12-18T06:08:08;8.85;;;5.57;;
41512;SDS011;27244;59.940;30.280;2022-12-18T06:10:36;8.40;;;5.53;;
41512;SDS011;27244;59.940;30.280;2022-12-18T06:13:05;8.75;;;5.72;;
41512;SDS011;27244;59.940;30.280;2022-12-18T06:15:32;7.85;;;5.65;;
41512;SDS011;27244;59.940;30.280;2022-12-18T06:18:02;6.75;;;5.45;;
41512;SDS011;27244;59.940;30.280;2022-12-18T06:20:29;6.97;;;5.50;;
41512;SDS011;27244;59.940;30.280;2022-12-18T06:23:02;7.65;;;6.00;;
41512;SDS011;27244;59.940;30.280;2022-12-18T06:25:29;8.85;;;5.50;;
41512;SDS011;27244;59.940;30.280;2022-12-18T06:27:59;5.88;;;4.97;;
41512;SDS011;27244;59.940;30.280;2022-12-18T06:30:28;6.95;;;5.18;;
41512;SDS011;27244;59.940;30.280;2022-12-18T06:33:07;6.60;;;5.68;;
41512;SDS011;27244;59.940;30.280;2022-12-18T06:35:50;7.13;;;5.45;;
41512;SDS011;27244;59.940;30.280;2022-12-18T06:38:17;6.97;;;5.47;;
41512;SDS011;27244;59.940;30.280;2022-12-18T06:40:44;7.97;;;5.22;;
41512;SDS011;27244;59.940;30.280;2022-12-18T06:43:11;7.10;;;5.18;;
41512;SDS011;27244;59.940;30.280;2022-12-18T06:45:40;7.65;;;5.97;;
41512;SDS011;27244;59.940;30.280;2022-12-18T06:48:07;6.43;;;5.68;;
41512;SDS011;27244;59.940;30.280;2022-12-18T06:50:34;7.30;;;5.70;;
41512;SDS011;27244;59.940;30.280;2022-12-18T06:53:01;7.55;;;5.70;;
41512;SDS011;27244;59.940;30.280;2022-12-18T06:55:28;7.53;;;5.70;;
41512;SDS011;27244;59.940;30.280;2022-12-18T06:57:55;7.93;;;5.78;;
41512;SDS011;27244;59.940;30.280;2022-12-18T07:00:22;7.18;;;5.97;;
41512;SDS011;27244;59.940;30.280;2022-12-18T07:02:51;6.72;;;5.38;;
41512;SDS011;27244;59.940;30.280;2022-12-18T07:05:17;8.75;;;6.22;;
41512;SDS011;27244;59.940;30.280;2022-12-18T07:07:44;8.02;;;6.10;;
41512;SDS011;27244;59.940;30.280;2022-12-18T07:10:11;6.93;;;5.57;;
41512;SDS011;27244;59.940;30.280;2022-12-18T07:12:38;7.90;;;6.10;;
41512;SDS011;27244;59.940;30.280;2022-12-18T07:15:06;8.38;;;6.38;;
41512;SDS011;27244;59.940;30.280;2022-12-18T07:17:34;7.30;;;6.18;;
41512;SDS011;27244;59.940;30.280;2022-12-18T07:20:03;8.35;;;5.80;;
41512;SDS011;27244;59.940;30.280;2022-12-18T07:22:30;7.78;;;6.15;;
41512;SDS011;27244;59.940;30.280;2022-12-18T07:24:57;7.90;;;6.40;;
41512;SDS011;27244;59.940;30.280;2022-12-18T07:27:24;8.75;;;6.93;;
41512;SDS011;27244;59.940;30.280;2022-12-18T07:29:51;7.13;;;6.25;;
41512;SDS011;27244;59.940;30.280;2022-12-18T07:32:18;6.80;;;5.75;;
41512;SDS011;27244;59.940;30.280;2022-12-18T07:34:45;7.38;;;6.10;;
41512;SDS011;27244;59.940;30.280;2022-12-18T07:37:13;7.55;;;6.28;;
41512;SDS011;27244;59.940;30.280;2022-12-18T07:39:40;7.18;;;5.88;;
41512;SDS011;27244;59.940;30.280;2022-12-18T07:42:07;8.23;;;6.20;;
41512;SDS011;27244;59.940;30.280;2022-12-18T07:44:52;7.70;;;6.38;;
41512;SDS011;27244;59.940;30.280;2022-12-18T07:47:19;7.28;;;6.18;;
41512;SDS011;27244;59.940;30.280;2022-12-18T07:49:46;9.00;;;6.22;;
41512;SDS011;27244;59.940;30.280;2022-12-18T07:52:14;7.75;;;6.57;;
41512;SDS011;27244;59.940;30.280;2022-12-18T07:54:43;8.68;;;6.82;;
41512;SDS011;27244;59.940;30.280;2022-12-18T07:57:10;8.35;;;6.15;;
41512;SDS011;27244;59.940;30.280;2022-12-18T07:59:37;6.75;;;5.72;;
41512;SDS011;27244;59.940;30.280;2022-12-18T08:02:04;7.75;;;6.35;;
41512;SDS011;27244;59.940;30.280;2022-12-18T08:04:31;7.28;;;5.68;;
41512;SDS011;27244;59.940;30.280;2022-12-18T08:06:58;9.48;;;7.15;;
41512;SDS011;27244;59.940;30.280;2022-12-18T08:09:26;8.63;;;7.18;;
41512;SDS011;27244;59.940;30.280;2022-12-18T08:11:53;9.30;;;7.25;;
41512;SDS011;27244;59.940;30.280;2022-12-18T08:14:20;8.75;;;7.03;;
41512;SDS011;27244;59.940;30.280;2022-12-18T08:16:48;9.18;;;7.15;;
41512;SDS011;27244;59.940;30.280;2022-12-18T08:19:14;9.52;;;7.25;;
41512;SDS011;27244;59.940;30.280;2022-12-18T08:21:41;8.60;;;6.78;;
41512;SDS011;27244;59.940;30.280;2022-12-18T08:24:08;8.23;;;6.97;;
41512;SDS011;27244;59.940;30.280;2022-12-18T08:26:37;10.23;;;6.97;;
41512;SDS011;27244;59.940;30.280;2022-12-18T08:29:04;8.70;;;6.78;;
41512;SDS011;27244;59.940;30.280;2022-12-18T08:31:31;8.07;;;6.82;;
41512;SDS011;27244;59.940;30.280;2022-12-18T08:33:58;8.18;;;6.20;;
41512;SDS011;27244;59.940;30.280;2022-12-18T08:36:25;7.65;;;6.45;;
41512;SDS011;27244;59.940;30.280;2022-12-18T08:38:52;9.55;;;6.40;;
41512;SDS011;27244;59.940;30.280;2022-12-18T08:41:21;8.77;;;6.50;;
41512;SDS011;27244;59.940;30.280;2022-12-18T08:43:50;8.02;;;6.13;;
41512;SDS011;27244;59.940;30.280;2022-12-18T08:46:35;7.43;;;6.43;;
41512;SDS011;27244;59.940;30.280;2022-12-18T08:49:03;6.90;;;5.90;;
41512;SDS011;27244;59.940;30.280;2022-12-18T08:51:32;7.93;;;6.22;;
41512;SDS011;27244;59.940;30.280;2022-12-18T08:56:30;6.82;;;5.32;;
41512;SDS011;27244;59.940;30.280;2022-12-18T08:58:59;6.65;;;5.88;;
41512;SDS011;27244;59.940;30.280;2022-12-18T09:01:27;7.03;;;5.57;;
41512;SDS011;27244;59.940;30.280;2022-12-18T09:03:54;6.25;;;5.30;;
41512;SDS011;27244;59.940;30.280;2022-12-18T09:06:21;6.78;;;5.75;;
41512;SDS011;27244;59.940;30.280;2022-12-18T09:08:51;6.40;;;5.10;;
41512;SDS011;27244;59.940;30.280;2022-12-18T09:11:19;6.53;;;5.40;;
41512;SDS011;27244;59.940;30.280;2022-12-18T09:14:03;6.95;;;5.13;;
41512;SDS011;27244;59.940;30.280;2022-12-18T09:16:30;7.65;;;5.30;;
41512;SDS011;27244;59.940;30.280;2022-12-18T09:19:00;6.32;;;4.85;;
41512;SDS011;27244;59.940;30.280;2022-12-18T09:21:28;7.90;;;5.05;;
41512;SDS011;27244;59.940;30.280;2022-12-18T09:23:57;6.45;;;5.28;;
41512;SDS011;27244;59.940;30.280;2022-12-18T09:26:24;6.80;;;5.55;;
41512;SDS011;27244;59.940;30.280;2022-12-18T09:28:52;6.03;;;5.10;;
41512;SDS011;27244;59.940;30.280;2022-12-18T09:31:28;7.78;;;6.40;;
41512;SDS011;27244;59.940;30.280;2022-12-18T09:33:55;7.00;;;5.97;;
41512;SDS011;27244;59.940;30.280;2022-12-18T09:36:22;8.45;;;6.90;;
41512;SDS011;27244;59.940;30.280;2022-12-18T09:38:49;8.10;;;6.70;;
41512;SDS011;27244;59.940;30.280;2022-12-18T09:41:19;8.02;;;6.70;;
41512;SDS011;27244;59.940;30.280;2022-12-18T09:44:09;7.57;;;6.43;;
41512;SDS011;27244;59.940;30.280;2022-12-18T09:46:45;7.47;;;6.55;;
41512;SDS011;27244;59.940;30.280;2022-12-18T09:49:16;7.82;;;6.75;;
41512;SDS011;27244;59.940;30.280;2022-12-18T09:51:47;7.75;;;6.82;;
41512;SDS011;27244;59.940;30.280;2022-12-18T09:54:18;8.45;;;7.05;;
41512;SDS011;27244;59.940;30.280;2022-12-18T09:56:48;6.93;;;6.22;;
41512;SDS011;27244;59.940;30.280;2022-12-18T09:59:18;7.78;;;6.75;;
41512;SDS011;27244;59.940;30.280;2022-12-18T10:01:50;9.45;;;7.60;;
41512;SDS011;27244;59.940;30.280;2022-12-18T10:04:17;11.27;;;8.55;;
41512;SDS011;27244;59.940;30.280;2022-12-18T10:06:46;10.90;;;8.88;;
41512;SDS011;27244;59.940;30.280;2022-12-18T10:09:20;12.18;;;9.27;;
41512;SDS011;27244;59.940;30.280;2022-12-18T10:11:55;11.80;;;9.45;;
41512;SDS011;27244;59.940;30.280;2022-12-18T10:14:32;11.43;;;9.15;;
41512;SDS011;27244;59.940;30.280;2022-12-18T10:17:05;12.18;;;10.10;;
41512;SDS011;27244;59.940;30.280;2022-12-18T10:19:40;11.35;;;9.95;;
41512;SDS011;27244;59.940;30.280;2022-12-18T10:22:29;13.13;;;9.85;;
41512;SDS011;27244;59.940;30.280;2022-12-18T10:25:05;11.95;;;9.20;;
41512;SDS011;27244;59.940;30.280;2022-12-18T10:27:45;11.07;;;9.60;;
41512;SDS011;27244;59.940;30.280;2022-12-18T10:30:13;11.15;;;9.10;;
41512;SDS011;27244;59.940;30.280;2022-12-18T10:32:43;10.30;;;9.20;;
41512;SDS011;27244;59.940;30.280;2022-12-18T10:35:12;12.07;;;10.30;;
41512;SDS011;27244;59.940;30.280;2022-12-18T10:37:59;11.82;;;10.45;;
41512;SDS011;27244;59.940;30.280;2022-12-18T10:40:47;12.98;;;10.60;;
41512;SDS011;27244;59.940;30.280;2022-12-18T10:43:19;11.98;;;9.80;;
41512;SDS011;27244;59.940;30.280;2022-12-18T10:48:54;14.07;;;10.90;;
41512;SDS011;27244;59.940;30.280;2022-12-18T10:51:23;11.43;;;10.07;;
41512;SDS011;27244;59.940;30.280;2022-12-18T10:53:52;11.57;;;9.70;;
41512;SDS011;27244;59.940;30.280;2022-12-18T10:56:23;11.65;;;9.75;;
41512;SDS011;27244;59.940;30.280;2022-12-18T10:58:56;12.43;;;10.15;;
41512;SDS011;27244;59.940;30.280;2022-12-18T11:01:33;11.85;;;10.38;;
41512;SDS011;27244;59.940;30.280;2022-12-18T11:04:17;13.20;;;10.73;;
41512;SDS011;27244;59.940;30.280;2022-12-18T11:06:55;14.93;;;11.10;;
41512;SDS011;27244;59.940;30.280;2022-12-18T11:09:25;13.50;;;10.45;;
41512;SDS011;27244;59.940;30.280;2022-12-18T11:11:53;12.02;;;10.10;;
41512;SDS011;27244;59.940;30.280;2022-12-18T11:14:26;12.68;;;10.75;;
41512;SDS011;27244;59.940;30.280;2022-12-18T11:17:04;12.95;;;10.80;;
41512;SDS011;27244;59.940;30.280;2022-12-18T11:19:44;13.65;;;9.90;;
41512;SDS011;27244;59.940;30.280;2022-12-18T11:24:59;12.20;;;9.43;;
41512;SDS011;27244;59.940;30.280;2022-12-18T11:27:28;11.07;;;9.55;;
41512;SDS011;27244;59.940;30.280;2022-12-18T11:30:07;11.45;;;9.80;;
41512;SDS011;27244;59.940;30.280;2022-12-18T11:32:37;13.40;;;11.13;;
41512;SDS011;27244;59.940;30.280;2022-12-18T11:35:13;12.55;;;10.45;;
41512;SDS011;27244;59.940;30.280;2022-12-18T11:37:50;12.93;;;10.90;;
41512;SDS011;27244;59.940;30.280;2022-12-18T11:40:26;12.95;;;11.02;;
41512;SDS011;27244;59.940;30.280;2022-12-18T11:42:58;12.85;;;11.13;;
41512;SDS011;27244;59.940;30.280;2022-12-18T11:45:31;13.63;;;11.68;;
41512;SDS011;27244;59.940;30.280;2022-12-18T11:48:03;15.52;;;11.32;;
41512;SDS011;27244;59.940;30.280;2022-12-18T11:50:41;13.65;;;12.23;;
41512;SDS011;27244;59.940;30.280;2022-12-18T11:53:15;13.98;;;11.98;;
41512;SDS011;27244;59.940;30.280;2022-12-18T11:55:46;13.38;;;11.45;;
41512;SDS011;27244;59.940;30.280;2022-12-18T11:58:29;12.75;;;11.00;;
41512;SDS011;27244;59.940;30.280;2022-12-18T12:01:11;12.52;;;11.02;;
41512;SDS011;27244;59.940;30.280;2022-12-18T12:03:55;12.50;;;11.02;;
41512;SDS011;27244;59.940;30.280;2022-12-18T12:06:45;11.60;;;10.38;;
41512;SDS011;27244;59.940;30.280;2022-12-18T12:09:23;12.25;;;10.95;;
41512;SDS011;27244;59.940;30.280;2022-12-18T12:12:01;12.48;;;10.80;;
41512;SDS011;27244;59.940;30.280;2022-12-18T12:14:47;11.82;;;10.55;;
41512;SDS011;27244;59.940;30.280;2022-12-18T12:17:27;10.80;;;9.50;;
41512;SDS011;27244;59.940;30.280;2022-12-18T12:20:06;12.43;;;10.73;;
41512;SDS011;27244;59.940;30.280;2022-12-18T12:22:45;10.45;;;9.35;;
41512;SDS011;27244;59.940;30.280;2022-12-18T12:25:27;10.57;;;9.25;;
41512;SDS011;27244;59.940;30.280;2022-12-18T12:28:06;11.73;;;9.40;;
41512;SDS011;27244;59.940;30.280;2022-12-18T12:30:43;11.65;;;9.25;;
41512;SDS011;27244;59.940;30.280;2022-12-18T12:33:21;10.82;;;9.63;;
41512;SDS011;27244;59.940;30.280;2022-12-18T12:36:03;11.32;;;9.48;;
41512;SDS011;27244;59.940;30.280;2022-12-18T12:38:42;10.23;;;9.07;;
41512;SDS011;27244;59.940;30.280;2022-12-18T12:41:17;9.85;;;8.60;;
41512;SDS011;27244;59.940;30.280;2022-12-18T12:44:05;10.65;;;9.55;;
41512;SDS011;27244;59.940;30.280;2022-12-18T12:46:36;10.52;;;9.20;;
41512;SDS011;27244;59.940;30.280;2022-12-18T12:51:38;9.75;;;8.75;;
41512;SDS011;27244;59.940;30.280;2022-12-18T12:54:11;9.68;;;8.32;;
41512;SDS011;27244;59.940;30.280;2022-12-18T12:56:44;10.57;;;8.45;;
41512;SDS011;27244;59.940;30.280;2022-12-18T12:59:19;9.45;;;8.02;;
41512;SDS011;27244;59.940;30.280;2022-12-18T13:01:54;9.05;;;8.13;;
41512;SDS011;27244;59.940;30.280;2022-12-18T13:04:27;9.52;;;8.13;;
41512;SDS011;27244;59.940;30.280;2022-12-18T13:07:00;9.32;;;7.57;;
41512;SDS011;27244;59.940;30.280;2022-12-18T13:10:10;8.43;;;7.53;;
41512;SDS011;27244;59.940;30.280;2022-12-18T13:12:50;9.52;;;7.88;;
41512;SDS011;27244;59.940;30.280;2022-12-18T13:15:25;8.85;;;7.50;;
41512;SDS011;27244;59.940;30.280;2022-12-18T13:18:03;7.97;;;7.18;;
41512;SDS011;27244;59.940;30.280;2022-12-18T13:20:33;8.00;;;7.20;;
41512;SDS011;27244;59.940;30.280;2022-12-18T13:23:01;8.93;;;7.47;;
41512;SDS011;27244;59.940;30.280;2022-12-18T13:25:53;7.85;;;6.82;;
41512;SDS011;27244;59.940;30.280;2022-12-18T13:28:23;7.07;;;6.37;;
41512;SDS011;27244;59.940;30.280;2022-12-18T13:31:11;9.32;;;8.07;;
41512;SDS011;27244;59.940;30.280;2022-12-18T13:33:42;8.38;;;7.03;;
41512;SDS011;27244;59.940;30.280;2022-12-18T13:36:23;7.70;;;6.50;;
41512;SDS011;27244;59.940;30.280;2022-12-18T13:41:52;7.35;;;6.65;;
41512;SDS011;27244;59.940;30.280;2022-12-18T13:45:00;7.50;;;6.57;;
41512;SDS011;27244;59.940;30.280;2022-12-18T13:47:32;7.00;;;6.30;;
41512;SDS011;27244;59.940;30.280;2022-12-18T13:50:09;6.88;;;5.75;;
41512;SDS011;27244;59.940;30.280;2022-12-18T13:52:46;6.63;;;5.95;;
41512;SDS011;27244;59.940;30.280;2022-12-18T13:55:14;6.97;;;6.03;;
41512;SDS011;27244;59.940;30.280;2022-12-18T13:57:46;7.00;;;6.30;;
41512;SDS011;27244;59.940;30.280;2022-12-18T14:00:19;6.78;;;6.05;;
41512;SDS011;27244;59.940;30.280;2022-12-18T14:02:55;8.02;;;6.13;;
41512;SDS011;27244;59.940;30.280;2022-12-18T14:05:24;7.10;;;6.18;;
41512;SDS011;27244;59.940;30.280;2022-12-18T14:07:52;7.93;;;6.03;;
41512;SDS011;27244;59.940;30.280;2022-12-18T14:10:20;7.97;;;5.80;;
41512;SDS011;27244;59.940;30.280;2022-12-18T14:12:51;6.97;;;6.03;;
41512;SDS011;27244;59.940;30.280;2022-12-18T14:15:27;8.25;;;5.65;;
41512;SDS011;27244;59.940;30.280;2022-12-18T14:18:00;6.53;;;5.63;;
41512;SDS011;27244;59.940;30.280;2022-12-18T14:20:32;7.65;;;5.93;;
41512;SDS011;27244;59.940;30.280;2022-12-18T14:23:00;7.03;;;5.85;;
41512;SDS011;27244;59.940;30.280;2022-12-18T14:25:28;6.65;;;5.95;;
41512;SDS011;27244;59.940;30.280;2022-12-18T14:28:07;7.40;;;6.00;;
41512;SDS011;27244;59.940;30.280;2022-12-18T14:30:41;5.85;;;5.25;;
41512;SDS011;27244;59.940;30.280;2022-12-18T14:33:28;6.55;;;5.60;;
41512;SDS011;27244;59.940;30.280;2022-12-18T14:35:56;5.88;;;5.20;;
41512;SDS011;27244;59.940;30.280;2022-12-18T14:38:27;5.90;;;5.30;;
41512;SDS011;27244;59.940;30.280;2022-12-18T14:40:56;6.32;;;5.53;;
41512;SDS011;27244;59.940;30.280;2022-12-18T14:43:25;6.50;;;5.45;;
41512;SDS011;27244;59.940;30.280;2022-12-18T14:45:53;6.20;;;5.50;;
41512;SDS011;27244;59.940;30.280;2022-12-18T14:48:22;6.32;;;5.47;;
41512;SDS011;27244;59.940;30.280;2022-12-18T14:51:00;5.68;;;4.63;;
41512;SDS011;27244;59.940;30.280;2022-12-18T14:53:32;6.57;;;5.43;;
41512;SDS011;27244;59.940;30.280;2022-12-18T14:56:02;5.82;;;4.68;;
41512;SDS011;27244;59.940;30.280;2022-12-18T14:58:31;6.88;;;5.40;;
41512;SDS011;27244;59.940;30.280;2022-12-18T15:00:58;6.43;;;5.13;;
41512;SDS011;27244;59.940;30.280;2022-12-18T15:03:25;6.20;;;5.15;;
41512;SDS011;27244;59.940;30.280;2022-12-18T15:05:52;6.60;;;4.68;;
41512;SDS011;27244;59.940;30.280;2022-12-18T15:08:29;6.53;;;5.03;;
41512;SDS011;27244;59.940;30.280;2022-12-18T15:11:00;5.50;;;4.70;;
41512;SDS011;27244;59.940;30.280;2022-12-18T15:13:27;4.85;;;4.35;;
41512;SDS011;27244;59.940;30.280;2022-12-18T15:15:58;5.85;;;4.80;;